createdAt,value
2023-03-06T00:00:18.631Z,67.41113
2023-03-06T00:00:48.626Z,67.37891
2023-03-06T00:01:18.625Z,67.06641
2023-03-06T00:01:48.635Z,67.0293
2023-03-06T00:02:18.628Z,67.3418
2023-03-06T00:02:48.623Z,67.3418
2023-03-06T00:03:18.760Z,67.04297
2023-03-06T00:03:48.697Z,67.16699
2023-03-06T00:04:18.626Z,67.28809
2023-03-06T00:04:48.624Z,67.5127
2023-03-06T00:05:18.628Z,67.38965
2023-03-06T00:05:48.694Z,66.81934
2023-03-06T00:06:18.640Z,66.70996
2023-03-06T00:06:48.627Z,67.4043
2023-03-06T00:07:18.626Z,67.50977
2023-03-06T00:07:48.627Z,67.60352
2023-03-06T00:08:18.628Z,67.26074
2023-03-06T00:08:48.632Z,67.31641
2023-03-06T00:09:18.634Z,67.50195
2023-03-06T00:09:48.625Z,67.26367
2023-03-06T00:10:18.633Z,67.46191
2023-03-06T00:10:48.628Z,67.69824
2023-03-06T00:11:18.630Z,67.86816
2023-03-06T00:11:48.625Z,67.90918
2023-03-06T00:12:18.632Z,67.47363
2023-03-06T00:12:48.634Z,67.72363
2023-03-06T00:13:18.629Z,67.27344
2023-03-06T00:13:48.631Z,67.25488
2023-03-06T00:14:18.642Z,67.28613
2023-03-06T00:14:48.629Z,67.41211
2023-03-06T00:15:18.628Z,67.91016
2023-03-06T00:15:48.835Z,68.05957
2023-03-06T00:16:18.698Z,67.7041
2023-03-06T00:16:48.625Z,67.45898
2023-03-06T00:17:18.628Z,67.16113
2023-03-06T00:17:48.642Z,67.03516
2023-03-06T00:18:18.638Z,67.375
2023-03-06T00:18:48.630Z,67.48242
2023-03-06T00:19:18.627Z,67.64063
2023-03-06T00:19:48.629Z,67.74902
2023-03-06T00:20:18.633Z,67.68262
2023-03-06T00:20:48.637Z,68.0752
2023-03-06T00:21:18.627Z,67.85352
2023-03-06T00:21:48.630Z,68.32422
2023-03-06T00:22:18.635Z,68.43945
2023-03-06T00:22:48.679Z,67.88086
2023-03-06T00:23:18.635Z,67.41797
2023-03-06T00:23:48.626Z,67.39551
2023-03-06T00:24:18.629Z,67.47949
2023-03-06T00:24:48.634Z,67.37012
2023-03-06T00:25:18.628Z,66.93359
2023-03-06T00:25:48.643Z,66.86328
2023-03-06T00:26:18.632Z,66.83594
2023-03-06T00:26:48.633Z,66.55273
2023-03-06T00:27:18.629Z,66.7334
2023-03-06T00:27:48.666Z,67.06055
2023-03-06T00:28:18.636Z,67.25488
2023-03-06T00:28:48.637Z,67.58984
2023-03-06T00:29:18.629Z,67.32715
2023-03-06T00:29:48.626Z,67.10645
2023-03-06T00:30:18.632Z,67.11719
2023-03-06T00:30:48.627Z,67.56152
2023-03-06T00:31:18.658Z,67.67871
2023-03-06T00:31:48.668Z,67.78809
2023-03-06T00:32:18.672Z,67.59961
2023-03-06T00:32:48.626Z,67.85645
2023-03-06T00:33:18.630Z,68.43457
2023-03-06T00:33:48.628Z,68.78809
2023-03-06T00:34:18.630Z,68.68457
2023-03-06T00:34:48.627Z,69
2023-03-06T00:35:18.652Z,68.34375
2023-03-06T00:35:48.684Z,67.98633
2023-03-06T00:36:18.649Z,68.05176
2023-03-06T00:36:48.630Z,68.65039
2023-03-06T00:37:18.629Z,68.34668
2023-03-06T00:37:48.643Z,68.63672
2023-03-06T00:38:18.633Z,68.56152
2023-03-06T00:38:48.628Z,68.29883
2023-03-06T00:39:18.626Z,68.52246
2023-03-06T00:39:48.630Z,68.3252
2023-03-06T00:40:18.628Z,68.54102
2023-03-06T00:40:48.632Z,68.71191
2023-03-06T00:41:18.627Z,68.54492
2023-03-06T00:41:48.634Z,68.48633
2023-03-06T00:42:18.635Z,68.49902
2023-03-06T00:42:48.667Z,68.64941
2023-03-06T00:43:18.638Z,68.9043
2023-03-06T00:43:48.630Z,69.05078
2023-03-06T00:44:18.647Z,68.76855
2023-03-06T00:44:48.644Z,68.45801
2023-03-06T00:45:18.637Z,68.25195
2023-03-06T00:45:48.668Z,68.86328
2023-03-06T00:46:18.637Z,68.4707
2023-03-06T00:46:48.640Z,68.28516
2023-03-06T00:47:18.630Z,68.43555
2023-03-06T00:47:48.629Z,68.61816
2023-03-06T00:48:18.627Z,69.15137
2023-03-06T00:48:48.634Z,69.41309
2023-03-06T00:49:18.628Z,69.36133
2023-03-06T00:49:48.627Z,69.25488
2023-03-06T00:50:18.633Z,69.42676
2023-03-06T00:50:48.629Z,69.65918
2023-03-06T00:51:18.628Z,69.78906
2023-03-06T00:51:48.629Z,69.88281
2023-03-06T00:52:18.638Z,69.27246
2023-03-06T00:52:48.631Z,68.99219
2023-03-06T00:53:18.631Z,69.37305
2023-03-06T00:53:48.630Z,69.59082
2023-03-06T00:54:18.626Z,70.1543
2023-03-06T00:54:48.635Z,70.31055
2023-03-06T00:55:18.630Z,70.80078
2023-03-06T00:55:48.625Z,71.27832
2023-03-06T00:56:19.953Z,71.29297
2023-03-06T00:56:48.629Z,71.52637
2023-03-06T00:57:18.626Z,71.06348
2023-03-06T00:57:48.632Z,70.38281
2023-03-06T00:58:18.630Z,69.9043
2023-03-06T00:58:48.626Z,70.02637
2023-03-06T00:59:18.626Z,69.77051
2023-03-06T00:59:48.628Z,69.64551
2023-03-06T01:00:18.625Z,69.69336
2023-03-06T01:00:48.701Z,69.25293
2023-03-06T01:01:18.677Z,68.66992
2023-03-06T01:01:48.648Z,68.58398
2023-03-06T01:02:18.717Z,69.40332
2023-03-06T01:02:48.624Z,69.10156
2023-03-06T01:03:18.625Z,68.98242
2023-03-06T01:03:48.625Z,69.13281
2023-03-06T01:04:18.639Z,68.84473
2023-03-06T01:04:48.632Z,68.78125
2023-03-06T01:05:18.627Z,68.59668
2023-03-06T01:05:48.626Z,68.79297
2023-03-06T01:06:18.635Z,68.76172
2023-03-06T01:06:48.633Z,68.15527
2023-03-06T01:07:18.623Z,68.03418
2023-03-06T01:07:48.622Z,68.26758
2023-03-06T01:08:18.629Z,68.05371
2023-03-06T01:08:48.625Z,68.2627
2023-03-06T01:09:18.636Z,68.24316
2023-03-06T01:09:48.636Z,68.21191
2023-03-06T01:10:18.633Z,68.94238
2023-03-06T01:10:48.638Z,68.82715
2023-03-06T01:11:18.624Z,68.55859
2023-03-06T01:11:48.627Z,68.36426
2023-03-06T01:12:18.621Z,68.46289
2023-03-06T01:12:48.637Z,68.52344
2023-03-06T01:13:18.631Z,68.34961
2023-03-06T01:13:48.622Z,68.28809
2023-03-06T01:14:18.623Z,68.2627
2023-03-06T01:14:48.632Z,68.28418
2023-03-06T01:15:18.626Z,68.49121
2023-03-06T01:15:48.627Z,68.59668
2023-03-06T01:16:18.699Z,68.42188
2023-03-06T01:16:48.625Z,68.59961
2023-03-06T01:17:18.626Z,68.4668
2023-03-06T01:17:48.621Z,68.35742
2023-03-06T01:18:18.622Z,67.71191
2023-03-06T01:18:48.621Z,67.36914
2023-03-06T01:19:18.646Z,67.48828
2023-03-06T01:19:48.623Z,67.27441
2023-03-06T01:20:18.623Z,67.1582
2023-03-06T01:20:48.628Z,67.13086
2023-03-06T01:21:18.625Z,67.77148
2023-03-06T01:21:48.631Z,68.18262
2023-03-06T01:22:18.621Z,67.86816
2023-03-06T01:22:48.621Z,67.75293
2023-03-06T01:23:18.623Z,67.75293
2023-03-06T01:23:48.622Z,67.97168
2023-03-06T01:24:18.623Z,67.95215
2023-03-06T01:24:48.620Z,67.71484
2023-03-06T01:25:18.625Z,67.79785
2023-03-06T01:25:48.620Z,67.99219
2023-03-06T01:26:18.622Z,68.22168
2023-03-06T01:26:48.622Z,67.98242
2023-03-06T01:27:18.624Z,68.23828
2023-03-06T01:27:48.624Z,68.37207
2023-03-06T01:28:18.630Z,68.50195
2023-03-06T01:28:48.620Z,68.64258
2023-03-06T01:29:18.622Z,68.87305
2023-03-06T01:29:48.622Z,69.38672
2023-03-06T01:30:18.622Z,68.89258
2023-03-06T01:30:48.627Z,68.1709
2023-03-06T01:31:18.659Z,67.90137
2023-03-06T01:31:48.713Z,68.22266
2023-03-06T01:32:18.666Z,68.18359
2023-03-06T01:32:48.622Z,67.7627
2023-03-06T01:33:18.619Z,67.48535
2023-03-06T01:33:48.623Z,67.85059
2023-03-06T01:34:18.623Z,68.26465
2023-03-06T01:34:48.625Z,68.48633
2023-03-06T01:35:18.680Z,67.81152
2023-03-06T01:35:48.725Z,67.75293
2023-03-06T01:36:18.622Z,68.30664
2023-03-06T01:36:48.620Z,68.77148
2023-03-06T01:37:18.622Z,68.89258
2023-03-06T01:37:48.665Z,68.49512
2023-03-06T01:38:18.630Z,68.07324
2023-03-06T01:38:48.633Z,67.68262
2023-03-06T01:39:18.621Z,67.74609
2023-03-06T01:39:48.630Z,68.02051
2023-03-06T01:40:18.641Z,68.4707
2023-03-06T01:40:48.624Z,68.74707
2023-03-06T01:41:18.622Z,68.80371
2023-03-06T01:41:48.624Z,68.48438
2023-03-06T01:42:18.624Z,68.14258
2023-03-06T01:42:48.641Z,67.76367
2023-03-06T01:43:18.629Z,67.76855
2023-03-06T01:43:48.650Z,68.33496
2023-03-06T01:44:18.630Z,68.68652
2023-03-06T01:44:48.629Z,68.62305
2023-03-06T01:45:18.627Z,68.1709
2023-03-06T01:45:48.667Z,67.81738
2023-03-06T01:46:18.629Z,67.65332
2023-03-06T01:46:48.628Z,67.78027
2023-03-06T01:47:18.629Z,67.84766
2023-03-06T01:47:48.627Z,67.42578
2023-03-06T01:48:18.627Z,67.07813
2023-03-06T01:48:48.635Z,67.16504
2023-03-06T01:49:18.649Z,67.41406
2023-03-06T01:49:48.638Z,67.6416
2023-03-06T01:50:18.630Z,67.58887
2023-03-06T01:50:48.626Z,67.2793
2023-03-06T01:51:18.626Z,67.93457
2023-03-06T01:51:48.631Z,67.90332
2023-03-06T01:52:18.627Z,67.78027
2023-03-06T01:52:48.653Z,67.76953
2023-03-06T01:53:18.637Z,67.60645
2023-03-06T01:53:48.634Z,67.47852
2023-03-06T01:54:18.634Z,67.35547
2023-03-06T01:54:48.631Z,67.03809
2023-03-06T01:55:18.629Z,66.89551
2023-03-06T01:55:48.626Z,66.91113
2023-03-06T01:56:18.633Z,67.11328
2023-03-06T01:56:48.629Z,67.07813
2023-03-06T01:57:18.639Z,66.9043
2023-03-06T01:57:48.636Z,66.93652
2023-03-06T01:58:18.628Z,67.16797
2023-03-06T01:58:48.632Z,67.29395
2023-03-06T01:59:18.637Z,66.93066
2023-03-06T01:59:48.636Z,66.6084
2023-03-06T02:00:18.639Z,66.50488
2023-03-06T02:00:48.701Z,66.44531
2023-03-06T02:01:18.645Z,66.11523
2023-03-06T02:01:48.636Z,66.5293
2023-03-06T02:02:18.676Z,66.59766
2023-03-06T02:02:48.628Z,67.00977
2023-03-06T02:03:18.628Z,67.61426
2023-03-06T02:03:48.629Z,67.79785
2023-03-06T02:04:18.634Z,67.31641
2023-03-06T02:04:48.646Z,67.2959
2023-03-06T02:05:18.629Z,67.29395
2023-03-06T02:05:48.646Z,67.26367
2023-03-06T02:06:18.647Z,67.3584
2023-03-06T02:06:48.629Z,67.43359
2023-03-06T02:07:18.638Z,67.13379
2023-03-06T02:07:48.639Z,66.89746
2023-03-06T02:08:18.629Z,66.81641
2023-03-06T02:08:48.632Z,66.56641
2023-03-06T02:09:18.638Z,66.91211
2023-03-06T02:09:48.642Z,67.49414
2023-03-06T02:10:18.632Z,67.19531
2023-03-06T02:10:48.630Z,66.98535
2023-03-06T02:11:18.672Z,66.75195
2023-03-06T02:11:48.730Z,66.6084
2023-03-06T02:12:18.638Z,66.66797
2023-03-06T02:12:48.634Z,66.74121
2023-03-06T02:13:18.629Z,66.85254
2023-03-06T02:13:48.636Z,66.74609
2023-03-06T02:14:18.630Z,66.92871
2023-03-06T02:14:48.635Z,66.73438
2023-03-06T02:15:18.639Z,66.69531
2023-03-06T02:15:48.636Z,66.3877
2023-03-06T02:16:18.658Z,66.44922
2023-03-06T02:16:48.700Z,66.37012
2023-03-06T02:17:18.647Z,66.70996
2023-03-06T02:17:48.642Z,67.16992
2023-03-06T02:18:18.636Z,67.83691
2023-03-06T02:18:48.643Z,68.0332
2023-03-06T02:19:18.644Z,68.30957
2023-03-06T02:19:48.633Z,67.42773
2023-03-06T02:20:18.632Z,66.85156
2023-03-06T02:20:48.633Z,66.76172
2023-03-06T02:21:18.632Z,67.47656
2023-03-06T02:21:48.633Z,67.7627
2023-03-06T02:22:18.635Z,67.73828
2023-03-06T02:22:48.651Z,67.5166
2023-03-06T02:23:18.633Z,67.29883
2023-03-06T02:23:48.630Z,67.58691
2023-03-06T02:24:18.645Z,68.27832
2023-03-06T02:24:48.640Z,68.48438
2023-03-06T02:25:18.634Z,68.06836
2023-03-06T02:25:48.635Z,68.24512
2023-03-06T02:26:18.630Z,68.15527
2023-03-06T02:26:48.639Z,67.81445
2023-03-06T02:27:18.648Z,67.6416
2023-03-06T02:27:48.637Z,67.56445
2023-03-06T02:28:18.634Z,67.72754
2023-03-06T02:28:48.636Z,67.60547
2023-03-06T02:29:18.632Z,67.67871
2023-03-06T02:29:48.631Z,67.95117
2023-03-06T02:30:18.636Z,67.93555
2023-03-06T02:30:48.686Z,67.76953
2023-03-06T02:31:18.688Z,68.02344
2023-03-06T02:31:48.632Z,67.98535
2023-03-06T02:32:18.667Z,68.05566
2023-03-06T02:32:48.637Z,67.95313
2023-03-06T02:33:18.670Z,68.70801
2023-03-06T02:33:48.644Z,68.6709
2023-03-06T02:34:18.648Z,68.67871
2023-03-06T02:34:48.642Z,68.6123
2023-03-06T02:35:18.639Z,68.38965
2023-03-06T02:35:48.671Z,68.49805
2023-03-06T02:36:18.643Z,68.85059
2023-03-06T02:36:48.638Z,68.85938
2023-03-06T02:37:18.638Z,69.30957
2023-03-06T02:37:48.636Z,69.72363
2023-03-06T02:38:18.637Z,69.11133
2023-03-06T02:38:48.644Z,68.64063
2023-03-06T02:39:18.637Z,68.26465
2023-03-06T02:39:48.638Z,68.2373
2023-03-06T02:40:18.642Z,69.04492
2023-03-06T02:40:48.641Z,68.9082
2023-03-06T02:41:18.639Z,69.53613
2023-03-06T02:41:48.650Z,70.14746
2023-03-06T02:42:18.636Z,70.37695
2023-03-06T02:42:48.639Z,69.85449
2023-03-06T02:43:18.642Z,69.75586
2023-03-06T02:43:48.633Z,70.2793
2023-03-06T02:44:18.636Z,70.08105
2023-03-06T02:44:48.634Z,69.89258
2023-03-06T02:45:18.636Z,69.40625
2023-03-06T02:45:48.778Z,69.92383
2023-03-06T02:46:18.764Z,69.80762
2023-03-06T02:46:48.646Z,70.31152
2023-03-06T02:47:18.637Z,70.38379
2023-03-06T02:47:48.656Z,69.9375
2023-03-06T02:48:18.646Z,69.61914
2023-03-06T02:48:48.632Z,69.25293
2023-03-06T02:49:18.630Z,68.99902
2023-03-06T02:49:48.632Z,69.2002
2023-03-06T02:50:18.632Z,68.97363
2023-03-06T02:50:48.632Z,69.49902
2023-03-06T02:51:18.631Z,69.69434
2023-03-06T02:51:48.633Z,69.53613
2023-03-06T02:52:18.631Z,69.94824
2023-03-06T02:52:48.629Z,69.7041
2023-03-06T02:53:18.630Z,70.00293
2023-03-06T02:53:48.632Z,70.68555
2023-03-06T02:54:18.636Z,71.46875
2023-03-06T02:54:48.628Z,71.5
2023-03-06T02:55:18.627Z,71.04785
2023-03-06T02:55:48.657Z,71.14746
2023-03-06T02:56:18.627Z,71.11621
2023-03-06T02:56:48.641Z,70.83789
2023-03-06T02:57:18.634Z,71.38281
2023-03-06T02:57:48.642Z,71.57422
2023-03-06T02:58:18.632Z,71.44629
2023-03-06T02:58:48.629Z,71.82324
2023-03-06T02:59:18.632Z,71.80078
2023-03-06T02:59:48.648Z,71.18066
2023-03-06T03:00:18.628Z,70.91699
2023-03-06T03:00:48.635Z,70.9834
2023-03-06T03:01:18.733Z,71.18164
2023-03-06T03:01:48.732Z,71.43164
2023-03-06T03:02:18.635Z,70.44434
2023-03-06T03:02:48.629Z,69.72852
2023-03-06T03:03:18.642Z,69.54297
2023-03-06T03:03:48.649Z,69.72461
2023-03-06T03:04:18.640Z,70.28418
2023-03-06T03:04:48.679Z,69.88281
2023-03-06T03:05:18.635Z,69.09375
2023-03-06T03:05:48.629Z,69.01758
2023-03-06T03:06:18.631Z,69.32227
2023-03-06T03:06:48.626Z,69.21094
2023-03-06T03:07:18.625Z,68.96289
2023-03-06T03:07:48.647Z,68.41797
2023-03-06T03:08:18.627Z,68.80859
2023-03-06T03:08:48.642Z,69.60352
2023-03-06T03:09:18.630Z,70.05957
2023-03-06T03:09:48.626Z,70.2168
2023-03-06T03:10:18.630Z,69.97754
2023-03-06T03:10:48.626Z,69.58594
2023-03-06T03:11:18.631Z,69.83496
2023-03-06T03:11:48.630Z,69.80859
2023-03-06T03:12:18.632Z,69.99219
2023-03-06T03:12:48.629Z,70.38965
2023-03-06T03:13:18.634Z,70.80859
2023-03-06T03:13:48.654Z,70.96777
2023-03-06T03:14:18.630Z,71.28711
2023-03-06T03:14:48.633Z,71.88867
2023-03-06T03:15:18.630Z,72.01465
2023-03-06T03:15:48.680Z,71.92676
2023-03-06T03:16:18.704Z,72.05371
2023-03-06T03:16:48.632Z,72.32031
2023-03-06T03:17:18.637Z,72.17383
2023-03-06T03:17:48.638Z,71.73047
2023-03-06T03:18:18.625Z,71.44336
2023-03-06T03:18:48.626Z,71.2832
2023-03-06T03:19:18.643Z,71.24414
2023-03-06T03:19:48.633Z,71.37695
2023-03-06T03:20:18.645Z,71.5625
2023-03-06T03:20:48.631Z,71.38867
2023-03-06T03:21:18.631Z,71.5
2023-03-06T03:21:48.630Z,71.05957
2023-03-06T03:22:18.636Z,71.04395
2023-03-06T03:22:48.631Z,70.76074
2023-03-06T03:23:18.634Z,70.39648
2023-03-06T03:23:48.628Z,70.33105
2023-03-06T03:24:18.681Z,70.05664
2023-03-06T03:24:48.709Z,70.24414
2023-03-06T03:25:18.686Z,70.46094
2023-03-06T03:25:48.630Z,70.48438
2023-03-06T03:26:18.647Z,70.04199
2023-03-06T03:26:48.633Z,69.95313
2023-03-06T03:27:18.632Z,69.86133
2023-03-06T03:27:48.632Z,69.65332
2023-03-06T03:28:18.632Z,69.77832
2023-03-06T03:28:48.630Z,69.70508
2023-03-06T03:29:18.639Z,70.51953
2023-03-06T03:29:48.648Z,71.05664
2023-03-06T03:30:18.634Z,71.25098
2023-03-06T03:30:48.716Z,70.99023
2023-03-06T03:31:18.684Z,70.92773
2023-03-06T03:31:48.672Z,70.88281
2023-03-06T03:32:18.691Z,71.20215
2023-03-06T03:32:48.653Z,71.38672
2023-03-06T03:33:18.648Z,70.74707
2023-03-06T03:33:48.637Z,70.2627
2023-03-06T03:34:18.630Z,70.53613
2023-03-06T03:34:48.652Z,70.33691
2023-03-06T03:35:18.676Z,70.76855
2023-03-06T03:35:48.688Z,70.94141
2023-03-06T03:36:18.632Z,70.96777
2023-03-06T03:36:48.643Z,71.54297
2023-03-06T03:37:18.635Z,71.54688
2023-03-06T03:37:48.635Z,71.33691
2023-03-06T03:38:18.632Z,70.98633
2023-03-06T03:38:48.638Z,71.08105
2023-03-06T03:39:18.634Z,71.1748
2023-03-06T03:39:48.635Z,70.86621
2023-03-06T03:40:18.635Z,70.93066
2023-03-06T03:40:48.634Z,70.78418
2023-03-06T03:41:18.632Z,70.67383
2023-03-06T03:41:48.639Z,69.97852
2023-03-06T03:42:18.641Z,69.7002
2023-03-06T03:42:48.634Z,69.60059
2023-03-06T03:43:18.647Z,70.04785
2023-03-06T03:43:48.642Z,69.66016
2023-03-06T03:44:18.647Z,68.86328
2023-03-06T03:44:48.699Z,68.14746
2023-03-06T03:45:18.643Z,67.9502
2023-03-06T03:45:48.658Z,67.69043
2023-03-06T03:46:18.654Z,67.34668
2023-03-06T03:46:48.696Z,67.24512
2023-03-06T03:47:18.636Z,66.89746
2023-03-06T03:47:48.648Z,66.07617
2023-03-06T03:48:18.635Z,66.6416
2023-03-06T03:48:48.637Z,66.8125
2023-03-06T03:49:18.636Z,66.3291
2023-03-06T03:49:48.636Z,66.61816
2023-03-06T03:50:18.639Z,66.51855
2023-03-06T03:50:48.642Z,66.42773
2023-03-06T03:51:18.639Z,65.69043
2023-03-06T03:51:48.634Z,65.60645
2023-03-06T03:52:48.648Z,66.69824
2023-03-06T03:53:18.634Z,67.51855
2023-03-06T03:53:48.631Z,67.79199
2023-03-06T03:54:18.631Z,66.95117
2023-03-06T03:54:48.633Z,67.44531
2023-03-06T03:55:18.636Z,67.21484
2023-03-06T03:55:48.649Z,66.94531
2023-03-06T03:56:18.638Z,66.45313
2023-03-06T03:56:48.635Z,66.67773
2023-03-06T03:57:18.632Z,67.22559
2023-03-06T03:57:48.633Z,67.34082
2023-03-06T03:58:18.634Z,66.98047
2023-03-06T03:58:48.639Z,66.95313
2023-03-06T03:59:18.638Z,67.56348
2023-03-06T03:59:48.635Z,67.53516
2023-03-06T04:00:18.643Z,66.68652
2023-03-06T04:00:48.630Z,66.30664
2023-03-06T04:01:18.634Z,66.48535
2023-03-06T04:01:48.732Z,66.52051
2023-03-06T04:02:18.664Z,66.66016
2023-03-06T04:02:48.640Z,66.78613
2023-03-06T04:03:18.632Z,67.44238
2023-03-06T04:03:48.631Z,67.26172
2023-03-06T04:04:18.634Z,66.77246
2023-03-06T04:04:48.642Z,66.5791
2023-03-06T04:05:18.634Z,66.56836
2023-03-06T04:05:48.633Z,66.71289
2023-03-06T04:06:18.631Z,66.88574
2023-03-06T04:06:48.630Z,66.70801
2023-03-06T04:07:18.633Z,66.96484
2023-03-06T04:07:48.644Z,66.77832
2023-03-06T04:08:18.632Z,66.89355
2023-03-06T04:08:48.630Z,66.52832
2023-03-06T04:09:18.649Z,66.68262
2023-03-06T04:09:48.633Z,66.75195
2023-03-06T04:10:18.642Z,66.56934
2023-03-06T04:10:48.630Z,66.57031
2023-03-06T04:11:18.638Z,66.12598
2023-03-06T04:11:48.634Z,65.82813
2023-03-06T04:12:18.634Z,65.96094
2023-03-06T04:12:48.636Z,65.69043
2023-03-06T04:13:18.641Z,64.87305
2023-03-06T04:13:48.636Z,64.13086
2023-03-06T04:14:18.639Z,64.16406
2023-03-06T04:14:48.639Z,64.23145
2023-03-06T04:15:18.638Z,64.32227
2023-03-06T04:15:48.630Z,63.63672
2023-03-06T04:16:18.656Z,62.96289
2023-03-06T04:16:48.633Z,61.6377
2023-03-06T04:17:18.637Z,61.40625
2023-03-06T04:17:48.629Z,61.73926
2023-03-06T04:18:18.637Z,62.79004
2023-03-06T04:18:48.644Z,63.34766
2023-03-06T04:19:18.632Z,62.40039
2023-03-06T04:19:48.647Z,61.52051
2023-03-06T04:20:18.632Z,60.59082
2023-03-06T04:20:48.632Z,60.3877
2023-03-06T04:21:18.630Z,59.93359
2023-03-06T04:21:48.629Z,60.39551
2023-03-06T04:22:18.648Z,60.25098
2023-03-06T04:22:48.632Z,59.88574
2023-03-06T04:23:18.639Z,60.23242
2023-03-06T04:23:48.636Z,60.36328
2023-03-06T04:24:18.633Z,59.99902
2023-03-06T04:24:48.637Z,59.74121
2023-03-06T04:25:18.632Z,59.00977
2023-03-06T04:25:48.633Z,59.24219
2023-03-06T04:26:18.635Z,60.77246
2023-03-06T04:26:48.635Z,61.5752
2023-03-06T04:27:18.635Z,61.13672
2023-03-06T04:27:48.634Z,60.24316
2023-03-06T04:28:18.641Z,59.38574
2023-03-06T04:28:48.636Z,58.78418
2023-03-06T04:29:18.641Z,60.08789
2023-03-06T04:29:48.635Z,60.01953
2023-03-06T04:30:18.632Z,60.22168
2023-03-06T04:30:48.635Z,60.3916
2023-03-06T04:31:18.679Z,60.14453
2023-03-06T04:31:48.705Z,59.58984
2023-03-06T04:32:21.254Z,59.41504
2023-03-06T04:32:48.640Z,60.18652
2023-03-06T04:33:18.647Z,60.07813
2023-03-06T04:33:48.647Z,61.18848
2023-03-06T04:34:18.645Z,61.66309
2023-03-06T04:34:48.636Z,61.58691
2023-03-06T04:35:18.672Z,60.9248
2023-03-06T04:35:48.701Z,61.22852
2023-03-06T04:36:18.640Z,61.23926
2023-03-06T04:36:48.637Z,60.55078
2023-03-06T04:37:18.631Z,61.37207
2023-03-06T04:37:48.634Z,60.5957
2023-03-06T04:38:18.638Z,59.2207
2023-03-06T04:38:48.689Z,57.96777
2023-03-06T04:39:18.645Z,57.91895
2023-03-06T04:39:48.639Z,57.91699
2023-03-06T04:40:18.644Z,57.41406
2023-03-06T04:40:48.633Z,57.98047
2023-03-06T04:41:18.649Z,58.03613
2023-03-06T04:41:48.638Z,58.19922
2023-03-06T04:42:18.636Z,57.88672
2023-03-06T04:42:48.636Z,57.94238
2023-03-06T04:43:18.641Z,57.77441
2023-03-06T04:43:48.642Z,57.76465
2023-03-06T04:44:18.637Z,58.72949
2023-03-06T04:44:48.636Z,60.00098
2023-03-06T04:45:18.644Z,59.96094
2023-03-06T04:45:48.687Z,60.16699
2023-03-06T04:46:18.639Z,59.8584
2023-03-06T04:46:48.635Z,59.03906
2023-03-06T04:47:19.193Z,58.46094
2023-03-06T04:47:48.638Z,58.65234
2023-03-06T04:48:18.638Z,59.29688
2023-03-06T04:48:48.637Z,58.38184
2023-03-06T04:49:18.644Z,58.2373
2023-03-06T04:49:48.655Z,57.85547
2023-03-06T04:50:18.639Z,57.76758
2023-03-06T04:50:48.640Z,56.6709
2023-03-06T04:51:18.640Z,53.98145
2023-03-06T04:51:48.638Z,53.89063
2023-03-06T04:52:18.638Z,54.60059
2023-03-06T04:52:48.641Z,55.53125
2023-03-06T04:53:18.637Z,57.91016
2023-03-06T04:53:48.649Z,59.32422
2023-03-06T04:54:19.142Z,60.27441
2023-03-06T04:54:48.643Z,61.20703
2023-03-06T04:55:18.645Z,60.62305
2023-03-06T04:55:48.644Z,61.32617
2023-03-06T04:56:18.641Z,61.15332
2023-03-06T04:56:48.645Z,60.2959
2023-03-06T04:57:18.640Z,59.65332
2023-03-06T04:57:48.638Z,60.04297
2023-03-06T04:58:18.641Z,61.02637
2023-03-06T04:58:48.667Z,60.15234
2023-03-06T04:59:18.643Z,60.08887
2023-03-06T04:59:48.641Z,61.17188
2023-03-06T05:00:18.641Z,61.77441
2023-03-06T05:00:48.667Z,61.06152
2023-03-06T05:01:18.780Z,61.91406
2023-03-06T05:01:48.742Z,62.44336
2023-03-06T05:02:18.740Z,62.06836
2023-03-06T05:02:48.658Z,61.19922
2023-03-06T05:03:18.647Z,61.1582
2023-03-06T05:03:48.640Z,61.39648
2023-03-06T05:04:18.647Z,61.36621
2023-03-06T05:04:48.641Z,60.78711
2023-03-06T05:05:18.642Z,60.47363
2023-03-06T05:05:48.635Z,59.57715
2023-03-06T05:06:18.633Z,60.09375
2023-03-06T05:06:48.645Z,60.30859
2023-03-06T05:07:18.639Z,61.31641
2023-03-06T05:07:48.635Z,61.86816
2023-03-06T05:08:18.642Z,60.61523
2023-03-06T05:08:48.638Z,60.39258
2023-03-06T05:09:18.638Z,60.3623
2023-03-06T05:09:48.635Z,60.16309
2023-03-06T05:10:18.636Z,60.2334
2023-03-06T05:10:48.637Z,60.2998
2023-03-06T05:11:18.639Z,60.37695
2023-03-06T05:11:48.639Z,60.36426
2023-03-06T05:12:18.641Z,59.52637
2023-03-06T05:12:48.658Z,59.92188
2023-03-06T05:13:18.633Z,59.36133
2023-03-06T05:13:48.649Z,58.44922
2023-03-06T05:14:18.642Z,57.99902
2023-03-06T05:14:48.633Z,57.08301
2023-03-06T05:15:18.664Z,56.36426
2023-03-06T05:15:48.635Z,56.45605
2023-03-06T05:16:18.738Z,56.2373
2023-03-06T05:16:48.689Z,57.05176
2023-03-06T05:17:18.640Z,57.07715
2023-03-06T05:17:48.635Z,57.35254
2023-03-06T05:18:18.644Z,57.12402
2023-03-06T05:18:50.616Z,56.63281
2023-03-06T05:19:18.652Z,55.72949
2023-03-06T05:19:48.645Z,56.5625
2023-03-06T05:20:18.635Z,56.24023
2023-03-06T05:20:48.631Z,57.31738
2023-03-06T05:21:18.651Z,58.74512
2023-03-06T05:21:48.673Z,59.82129
2023-03-06T05:22:18.635Z,59.81543
2023-03-06T05:22:48.637Z,59.5
2023-03-06T05:23:18.635Z,58.85547
2023-03-06T05:23:48.633Z,57.7041
2023-03-06T05:24:18.632Z,56.33984
2023-03-06T05:24:48.632Z,56.39648
2023-03-06T05:25:18.642Z,54.83398
2023-03-06T05:25:48.636Z,53.41309
2023-03-06T05:26:18.638Z,52.96191
2023-03-06T05:26:48.637Z,53.92871
2023-03-06T05:27:18.635Z,54.62598
2023-03-06T05:27:48.644Z,54.23047
2023-03-06T05:28:18.634Z,52.59961
2023-03-06T05:28:48.632Z,51.72559
2023-03-06T05:29:18.635Z,51.41895
2023-03-06T05:29:48.639Z,52.625
2023-03-06T05:30:18.651Z,52.56934
2023-03-06T05:30:48.636Z,53.11328
2023-03-06T05:31:18.705Z,52.08301
2023-03-06T05:31:48.670Z,52.7627
2023-03-06T05:32:18.659Z,52.67188
2023-03-06T05:32:48.656Z,51.69727
2023-03-06T05:33:18.641Z,50.2002
2023-03-06T05:33:48.645Z,48.81934
2023-03-06T05:34:18.632Z,45.21973
2023-03-06T05:34:48.634Z,46.4043
2023-03-06T05:35:18.743Z,45.99121
2023-03-06T05:35:48.667Z,44.48438
2023-03-06T05:36:18.652Z,44.65332
2023-03-06T05:36:48.633Z,45.70508
2023-03-06T05:37:18.645Z,45.57227
2023-03-06T05:37:48.665Z,46.45996
2023-03-06T05:38:18.642Z,47.35156
2023-03-06T05:38:48.652Z,47.72852
2023-03-06T05:39:18.641Z,47.69434
2023-03-06T05:39:48.643Z,48.73926
2023-03-06T05:40:18.640Z,49.32129
2023-03-06T05:40:48.646Z,48.45605
2023-03-06T05:41:18.645Z,47.47949
2023-03-06T05:41:48.644Z,46.7959
2023-03-06T05:42:18.649Z,46.14648
2023-03-06T05:42:48.676Z,44.84375
2023-03-06T05:43:18.639Z,44.15723
2023-03-06T05:43:48.661Z,43.70605
2023-03-06T05:44:18.643Z,44.85742
2023-03-06T05:44:48.642Z,47.29785
2023-03-06T05:45:18.644Z,48.45898
2023-03-06T05:45:48.657Z,49.27148
2023-03-06T05:46:18.693Z,49.4209
2023-03-06T05:46:48.645Z,49.27148
2023-03-06T05:47:18.645Z,49.51172
2023-03-06T05:47:48.646Z,50.67871
2023-03-06T05:48:18.647Z,50.42676
2023-03-06T05:48:48.650Z,49.18164
2023-03-06T05:49:18.645Z,47.68555
2023-03-06T05:49:48.645Z,46.81152
2023-03-06T05:50:18.643Z,46.38086
2023-03-06T05:50:48.643Z,45.61035
2023-03-06T05:51:18.641Z,42.50391
2023-03-06T05:51:48.644Z,41.8252
2023-03-06T05:52:18.648Z,38.84473
2023-03-06T05:52:48.646Z,35.39258
2023-03-06T05:53:18.644Z,36.08398
2023-03-06T05:53:48.646Z,39.15723
2023-03-06T05:54:18.645Z,40.98535